Time;durP1;ratioP1;P1;durP2;ratioP2;P2;SDS_P1;SDS_P2;PMS_P1;PMS_P2;Temp;Humidity;BMP_temperature;BMP_pressure;BME280_temperature;BME280_humidity;BME280_pressure;Samples;Min_cycle;Max_cycle;Signal;HPM_P1;HPM_P2
2022/03/19 00:01:32;;;;;;;21.23;9.87;;;2.70;99.90;;;;;;5052668;28;20244;-83
2022/03/19 00:03:58;;;;;;;19.33;9.17;;;2.60;99.90;;;;;;5041541;28;20642;-83
2022/03/19 00:06:25;;;;;;;21.80;10.40;;;2.60;99.90;;;;;;5050234;28;21442;-83
2022/03/19 00:08:53;;;;;;;20.73;9.47;;;2.60;99.90;;;;;;5052333;28;20242;-84
2022/03/19 00:11:23;;;;;;;19.90;10.57;;;2.60;99.90;;;;;;5045846;28;20247;-83
2022/03/19 00:13:50;;;;;;;19.63;9.80;;;2.60;99.90;;;;;;5051053;28;20652;-83
2022/03/19 00:16:16;;;;;;;20.90;9.87;;;2.60;99.90;;;;;;5051112;28;20301;-83
2022/03/19 00:18:43;;;;;;;19.97;9.70;;;2.50;99.90;;;;;;5046610;28;20251;-83
2022/03/19 00:21:10;;;;;;;19.40;9.67;;;2.50;99.90;;;;;;5050734;28;20226;-84
2022/03/19 00:23:36;;;;;;;20.30;9.87;;;2.50;99.90;;;;;;5049583;28;20248;-82
2022/03/19 00:26:03;;;;;;;19.70;10.60;;;2.50;99.90;;;;;;5047352;28;20240;-83
2022/03/19 00:28:31;;;;;;;24.13;10.50;;;2.50;99.90;;;;;;5050412;28;20281;-84
2022/03/19 00:30:58;;;;;;;21.23;11.63;;;2.50;99.90;;;;;;5055278;28;20239;-85
2022/03/19 00:33:24;;;;;;;21.10;11.60;;;2.50;99.90;;;;;;5050735;28;20253;-83
2022/03/19 00:35:52;;;;;;;21.20;10.70;;;2.50;99.90;;;;;;5050142;28;20746;-84
2022/03/19 00:38:19;;;;;;;23.17;10.93;;;2.50;99.90;;;;;;5050719;28;20228;-83
2022/03/19 00:40:46;;;;;;;20.97;10.50;;;2.50;99.90;;;;;;5042720;28;20577;-84
2022/03/19 00:43:13;;;;;;;21.67;10.00;;;2.40;99.90;;;;;;5047114;28;20243;-84
2022/03/19 00:45:41;;;;;;;25.73;11.50;;;2.40;99.90;;;;;;5045110;28;20229;-83
2022/03/19 00:48:08;;;;;;;23.67;10.17;;;2.40;99.90;;;;;;5059144;28;20735;-83
2022/03/19 00:50:35;;;;;;;20.97;9.80;;;2.40;99.90;;;;;;5037760;28;20241;-84
2022/03/19 00:53:01;;;;;;;16.93;8.57;;;2.40;99.90;;;;;;5049855;28;20723;-84
2022/03/19 00:55:28;;;;;;;21.50;9.67;;;2.40;99.90;;;;;;5048179;28;20238;-84
2022/03/19 00:57:55;;;;;;;19.00;9.40;;;2.40;99.90;;;;;;5046888;28;20228;-84
2022/03/19 01:00:25;;;;;;;17.87;9.03;;;2.50;99.90;;;;;;5071034;28;20238;-82
2022/03/19 01:02:54;;;;;;;22.47;9.20;;;2.40;99.90;;;;;;5050868;28;20241;-83
2022/03/19 01:05:22;;;;;;;14.97;8.17;;;2.50;99.90;;;;;;5045704;28;20224;-82
2022/03/19 01:07:51;;;;;;;20.40;8.30;;;2.40;99.90;;;;;;5049262;28;20220;-83
2022/03/19 01:10:20;;;;;;;17.87;8.30;;;2.40;99.90;;;;;;5065120;28;20259;-82
2022/03/19 01:12:47;;;;;;;21.27;8.03;;;2.40;99.90;;;;;;5050229;28;20236;-83
2022/03/19 01:15:15;;;;;;;17.80;8.47;;;2.40;99.90;;;;;;5044393;28;20233;-83
2022/03/19 01:17:42;;;;;;;17.03;8.57;;;2.40;99.90;;;;;;5042453;28;20236;-83
2022/03/19 01:20:12;;;;;;;18.87;7.97;;;2.30;99.90;;;;;;5049564;28;20228;-83
2022/03/19 01:22:40;;;;;;;19.93;8.40;;;2.30;99.90;;;;;;5048483;28;20236;-82
2022/03/19 01:25:09;;;;;;;20.77;8.47;;;2.30;99.90;;;;;;5045553;28;20224;-83
2022/03/19 01:27:36;;;;;;;19.97;8.13;;;2.30;99.90;;;;;;5046645;28;20250;-84
2022/03/19 01:30:05;;;;;;;17.37;8.50;;;2.20;99.90;;;;;;5046722;28;20664;-83
2022/03/19 01:32:31;;;;;;;17.13;8.50;;;2.20;99.90;;;;;;5047375;28;20227;-84
2022/03/19 01:34:58;;;;;;;17.00;8.57;;;2.20;99.90;;;;;;5044689;28;20257;-83
2022/03/19 01:37:26;;;;;;;24.30;8.47;;;2.10;99.90;;;;;;5045711;28;20225;-84
2022/03/19 01:39:55;;;;;;;21.07;8.60;;;2.20;99.90;;;;;;5039645;28;20238;-84
2022/03/19 01:42:25;;;;;;;20.83;8.90;;;2.10;99.90;;;;;;5044353;28;20289;-85
2022/03/19 01:44:53;;;;;;;19.20;7.40;;;2.10;99.90;;;;;;5047987;28;20798;-81
2022/03/19 01:47:21;;;;;;;15.73;7.70;;;2.00;99.90;;;;;;5046116;28;20215;-83
2022/03/19 01:49:48;;;;;;;21.67;7.93;;;2.00;99.90;;;;;;5051429;28;20253;-85
2022/03/19 01:52:15;;;;;;;19.00;7.10;;;2.10;99.90;;;;;;5047001;28;20231;-82
2022/03/19 01:54:47;;;;;;;19.73;6.93;;;2.00;99.90;;;;;;5049653;28;20221;-82
2022/03/19 01:57:16;;;;;;;13.17;6.33;;;2.00;99.90;;;;;;5041327;28;20221;-82
2022/03/19 01:59:44;;;;;;;15.60;6.70;;;2.00;99.90;;;;;;5045840;28;20321;-85
2022/03/19 02:02:14;;;;;;;19.43;6.57;;;2.00;99.90;;;;;;5046196;28;20224;-84
2022/03/19 02:04:42;;;;;;;17.10;6.33;;;2.00;99.90;;;;;;5045615;28;20230;-84
2022/03/19 02:07:11;;;;;;;16.90;6.67;;;2.10;99.90;;;;;;5047034;28;20233;-82
2022/03/19 02:09:39;;;;;;;16.23;6.60;;;2.00;99.90;;;;;;5043974;28;20237;-83
2022/03/19 02:12:08;;;;;;;15.77;6.70;;;2.00;99.90;;;;;;5046847;28;20230;-83
2022/03/19 02:14:36;;;;;;;13.87;6.17;;;2.10;99.90;;;;;;5044253;28;20234;-84
2022/03/19 02:17:04;;;;;;;14.23;5.97;;;2.10;99.90;;;;;;5051762;28;20223;-83
2022/03/19 02:19:31;;;;;;;14.33;5.60;;;2.00;99.90;;;;;;5050061;28;20255;-83
2022/03/19 02:21:58;;;;;;;16.93;5.60;;;2.00;99.90;;;;;;5046251;28;20241;-84
2022/03/19 02:27:15;;;;;;;15.43;5.83;;;2.00;99.90;;;;;;5043909;28;20305;-84
2022/03/19 02:29:42;;;;;;;12.47;5.00;;;2.00;99.90;;;;;;5040911;28;20226;-82
2022/03/19 02:32:09;;;;;;;12.77;5.33;;;2.00;99.90;;;;;;5049117;28;20225;-82
2022/03/19 02:34:35;;;;;;;12.20;5.37;;;1.90;99.90;;;;;;5048528;28;20308;-84
2022/03/19 02:37:03;;;;;;;16.10;5.50;;;1.90;99.90;;;;;;5052341;28;20231;-82
2022/03/19 02:39:31;;;;;;;14.90;5.27;;;1.90;99.90;;;;;;5047393;28;20236;-82
2022/03/19 02:42:00;;;;;;;13.73;4.90;;;1.90;99.90;;;;;;5048594;28;20228;-82
2022/03/19 02:44:27;;;;;;;15.23;5.27;;;1.90;99.90;;;;;;5046944;28;20234;-82
2022/03/19 02:46:56;;;;;;;17.30;5.90;;;1.80;99.90;;;;;;5055188;28;20465;-82
2022/03/19 02:49:23;;;;;;;21.43;12.93;;;1.80;99.90;;;;;;5053106;28;20234;-82
2022/03/19 02:51:51;;;;;;;22.23;11.07;;;1.80;99.90;;;;;;5049300;28;20346;-83
2022/03/19 02:54:20;;;;;;;15.77;7.37;;;1.80;99.90;;;;;;5049453;28;20317;-83
2022/03/19 02:56:49;;;;;;;12.50;5.57;;;1.80;99.90;;;;;;5051392;28;20232;-83
2022/03/19 02:59:20;;;;;;;14.13;6.43;;;1.80;99.90;;;;;;5040995;28;20233;-81
2022/03/19 03:01:47;;;;;;;16.90;7.90;;;1.80;99.90;;;;;;5050054;28;20828;-81
2022/03/19 03:04:14;;;;;;;11.20;4.53;;;1.70;99.90;;;;;;5052067;28;20216;-82
2022/03/19 03:06:43;;;;;;;20.37;8.30;;;1.70;99.90;;;;;;5081850;28;20746;-83
2022/03/19 03:09:10;;;;;;;13.57;5.33;;;1.80;99.90;;;;;;5048159;28;20294;-82
2022/03/19 03:11:37;;;;;;;18.00;5.30;;;1.70;99.90;;;;;;5045364;28;20233;-81
2022/03/19 03:14:08;;;;;;;7.83;3.90;;;1.70;99.90;;;;;;5048411;28;20227;-81
2022/03/19 03:16:35;;;;;;;13.07;4.70;;;1.60;99.90;;;;;;5045420;28;20236;-81
2022/03/19 03:19:04;;;;;;;16.77;9.10;;;1.60;99.90;;;;;;5043523;28;20237;-85
2022/03/19 03:21:32;;;;;;;47.23;39.13;;;1.60;99.90;;;;;;5052649;28;20236;-82
2022/03/19 03:23:59;;;;;;;16.40;9.13;;;1.50;99.90;;;;;;5052296;28;20230;-84
2022/03/19 03:26:26;;;;;;;12.30;5.10;;;1.50;99.90;;;;;;5050008;28;20233;-84
2022/03/19 03:28:53;;;;;;;15.37;5.07;;;1.50;99.90;;;;;;5041625;28;20224;-82
2022/03/19 03:31:21;;;;;;;17.30;4.60;;;1.50;99.90;;;;;;5050891;28;20230;-84
2022/03/19 03:33:48;;;;;;;13.77;4.40;;;1.40;99.90;;;;;;5045235;28;20240;-84
2022/03/19 03:36:15;;;;;;;12.20;4.07;;;1.40;99.90;;;;;;5048958;28;20224;-82
2022/03/19 03:38:42;;;;;;;11.90;3.93;;;1.30;99.90;;;;;;5076577;28;20230;-83
2022/03/19 03:41:08;;;;;;;379.03;161.83;;;1.20;99.90;;;;;;5043970;28;20751;-83
2022/03/19 03:43:35;;;;;;;44.63;18.00;;;1.20;99.90;;;;;;5054251;28;20228;-82
2022/03/19 03:46:04;;;;;;;344.73;113.80;;;1.20;99.90;;;;;;5048319;28;20597;-82
2022/03/19 03:48:35;;;;;;;50.17;17.57;;;1.20;99.90;;;;;;5048337;28;20755;-83
2022/03/19 03:51:03;;;;;;;20.30;8.37;;;1.10;99.90;;;;;;5056997;28;20228;-82
2022/03/19 03:53:30;;;;;;;14.30;5.37;;;1.10;99.90;;;;;;5055791;28;20233;-82
2022/03/19 03:55:58;;;;;;;68.07;24.80;;;1.00;99.90;;;;;;5054454;28;20224;-83
2022/03/19 03:58:25;;;;;;;508.63;145.40;;;1.00;99.90;;;;;;5050079;28;20237;-82
2022/03/19 04:00:52;;;;;;;859.47;296.70;;;0.90;99.90;;;;;;5051948;28;20223;-83
2022/03/19 04:03:19;;;;;;;1040.53;377.83;;;0.90;99.90;;;;;;5050514;28;20629;-82
2022/03/19 04:05:47;;;;;;;124.13;39.60;;;0.80;99.90;;;;;;5044416;28;20751;-82
2022/03/19 04:08:14;;;;;;;36.03;11.57;;;0.80;99.90;;;;;;5054238;28;20224;-83
2022/03/19 04:10:40;;;;;;;521.47;297.60;;;0.70;99.90;;;;;;5052904;28;20237;-83
2022/03/19 04:13:07;;;;;;;279.03;175.90;;;0.70;99.90;;;;;;5048465;28;20237;-82
2022/03/19 04:15:34;;;;;;;34.73;16.30;;;0.80;99.90;;;;;;5049172;28;20238;-84
2022/03/19 04:18:01;;;;;;;18.97;8.40;;;0.70;99.90;;;;;;5047259;28;20220;-83
2022/03/19 04:20:29;;;;;;;16.50;6.37;;;0.60;99.90;;;;;;5053494;28;20300;-82
2022/03/19 04:22:57;;;;;;;12.30;5.20;;;0.60;99.90;;;;;;5050993;28;20216;-82
2022/03/19 04:25:25;;;;;;;15.87;5.47;;;0.60;99.90;;;;;;5050607;28;20672;-82
2022/03/19 04:27:54;;;;;;;12.37;4.83;;;0.50;99.90;;;;;;5048728;28;20707;-81
2022/03/19 04:30:22;;;;;;;14.23;4.13;;;0.50;99.90;;;;;;5053420;28;20641;-83
2022/03/19 04:32:52;;;;;;;39.47;25.87;;;0.50;99.90;;;;;;5053001;28;20232;-84
2022/03/19 04:38:08;;;;;;;12.77;5.00;;;0.40;99.90;;;;;;5049018;28;20232;-82
2022/03/19 04:40:36;;;;;;;16.20;5.83;;;0.40;99.90;;;;;;5050529;28;20232;-82
2022/03/19 04:43:03;;;;;;;12.97;4.53;;;0.40;99.90;;;;;;5049801;28;20228;-82
2022/03/19 04:45:30;;;;;;;17.37;7.23;;;0.40;99.90;;;;;;5050534;28;20224;-82
2022/03/19 04:47:57;;;;;;;59.20;31.53;;;0.40;99.90;;;;;;5049448;28;20710;-82
2022/03/19 04:50:24;;;;;;;19.70;8.13;;;0.30;99.90;;;;;;5052302;28;20228;-82
2022/03/19 04:52:51;;;;;;;107.03;53.67;;;0.30;99.90;;;;;;5051794;28;20315;-81
2022/03/19 04:55:20;;;;;;;44.37;25.47;;;0.30;99.90;;;;;;5050511;28;20237;-82
2022/03/19 04:57:48;;;;;;;23.20;12.47;;;0.30;99.90;;;;;;5053120;28;20227;-82
2022/03/19 05:00:17;;;;;;;11.00;5.50;;;0.30;99.90;;;;;;5050464;28;20271;-83
2022/03/19 05:02:44;;;;;;;19.97;4.83;;;0.20;99.90;;;;;;5051059;28;20228;-81
2022/03/19 05:05:11;;;;;;;11.10;4.87;;;0.20;99.90;;;;;;5051066;28;20235;-81
2022/03/19 05:07:39;;;;;;;10.70;4.00;;;0.20;99.90;;;;;;5076079;28;20596;-83
2022/03/19 05:12:54;;;;;;;10.47;4.03;;;0.10;99.90;;;;;;5033705;28;20258;-85
2022/03/19 05:15:21;;;;;;;15.13;4.07;;;0.10;99.90;;;;;;5046695;28;20317;-81
2022/03/19 05:17:48;;;;;;;7.07;3.53;;;0.10;99.90;;;;;;5051311;28;20282;-84
2022/03/19 05:20:15;;;;;;;9.87;3.40;;;0.10;99.90;;;;;;5049427;28;20311;-82
2022/03/19 05:22:42;;;;;;;10.27;3.43;;;0.10;99.90;;;;;;5053919;28;20233;-82
2022/03/19 05:25:09;;;;;;;10.80;4.47;;;0.10;99.90;;;;;;5051440;28;20325;-81
2022/03/19 05:27:37;;;;;;;14.13;3.73;;;0.10;99.90;;;;;;5049483;28;20245;-83
2022/03/19 05:30:07;;;;;;;9.67;3.73;;;0.10;99.90;;;;;;5046948;28;20276;-82
2022/03/19 05:32:35;;;;;;;11.03;3.53;;;0.10;99.90;;;;;;5076651;28;20223;-83
2022/03/19 05:35:03;;;;;;;12.77;3.23;;;0.10;99.90;;;;;;5042632;28;20228;-82
2022/03/19 05:37:30;;;;;;;14.53;3.83;;;0.20;99.90;;;;;;5029641;28;20225;-83
2022/03/19 05:39:56;;;;;;;12.20;3.63;;;0.20;99.90;;;;;;5025720;28;20661;-82
2022/03/19 05:42:24;;;;;;;11.40;3.23;;;0.20;99.90;;;;;;5047373;28;20258;-83
2022/03/19 05:44:52;;;;;;;16.67;3.83;;;0.30;99.90;;;;;;5039069;28;20276;-82
2022/03/19 05:47:20;;;;;;;11.63;3.57;;;0.30;99.90;;;;;;5045260;28;20229;-83
2022/03/19 05:49:46;;;;;;;10.97;3.50;;;0.30;99.90;;;;;;5046292;28;20236;-83
2022/03/19 05:52:13;;;;;;;11.43;3.90;;;0.30;99.90;;;;;;5049644;28;20235;-83
2022/03/19 05:54:40;;;;;;;12.00;3.57;;;0.40;99.90;;;;;;5037488;28;20336;-83
2022/03/19 05:57:07;;;;;;;12.63;3.60;;;0.40;99.90;;;;;;5052113;28;20299;-82
2022/03/19 05:59:34;;;;;;;11.13;3.23;;;0.40;99.90;;;;;;5047335;28;20304;-82
2022/03/19 06:02:00;;;;;;;11.77;3.43;;;0.50;99.90;;;;;;5046454;28;20256;-82
2022/03/19 06:04:28;;;;;;;12.03;3.30;;;0.70;99.90;;;;;;5045750;28;20230;-80
2022/03/19 06:06:55;;;;;;;9.83;3.27;;;0.80;99.90;;;;;;5048294;28;20233;-82
2022/03/19 06:09:22;;;;;;;12.63;2.87;;;1.00;99.90;;;;;;5050861;28;20229;-82
2022/03/19 06:11:49;;;;;;;11.20;2.90;;;1.20;99.90;;;;;;5046272;28;20267;-82
2022/03/19 06:14:16;;;;;;;10.53;3.60;;;1.30;99.90;;;;;;5050906;28;20290;-80
2022/03/19 06:16:42;;;;;;;10.27;3.93;;;1.50;99.90;;;;;;5046605;28;20238;-78
2022/03/19 06:19:09;;;;;;;10.63;3.00;;;1.70;99.90;;;;;;5047253;28;20251;-80
2022/03/19 06:21:39;;;;;;;9.80;3.10;;;1.90;99.90;;;;;;5050574;28;20228;-81
2022/03/19 06:24:07;;;;;;;8.77;2.90;;;2.10;99.90;;;;;;5043568;28;20697;-81
2022/03/19 06:26:34;;;;;;;10.47;3.03;;;2.40;99.90;;;;;;5049081;28;20345;-81
2022/03/19 06:29:01;;;;;;;11.67;3.10;;;2.50;99.90;;;;;;5050419;28;20234;-82
2022/03/19 06:31:27;;;;;;;9.57;3.20;;;2.70;99.90;;;;;;5052824;28;20227;-81
2022/03/19 06:33:54;;;;;;;10.00;3.60;;;2.80;99.90;;;;;;5052041;28;20228;-82
2022/03/19 06:39:07;;;;;;;9.80;2.57;;;3.00;99.90;;;;;;5051426;28;20259;-81
2022/03/19 06:41:35;;;;;;;12.73;3.17;;;3.00;99.90;;;;;;5057868;28;20225;-81
2022/03/19 06:44:02;;;;;;;10.70;3.33;;;3.10;99.90;;;;;;5054436;28;20699;-82
2022/03/19 06:46:29;;;;;;;10.70;2.80;;;3.20;99.90;;;;;;5050372;28;20231;-81
2022/03/19 06:48:55;;;;;;;8.43;2.63;;;3.30;99.90;;;;;;5052106;28;20219;-80
2022/03/19 06:51:22;;;;;;;5.97;2.40;;;3.40;99.90;;;;;;5053066;28;20767;-81
2022/03/19 06:53:49;;;;;;;13.23;2.90;;;3.40;99.90;;;;;;5052152;28;20233;-80
2022/03/19 06:56:18;;;;;;;10.47;3.53;;;3.40;99.90;;;;;;5053785;28;20672;-81
2022/03/19 06:58:45;;;;;;;12.03;2.80;;;3.40;99.90;;;;;;5052213;28;20220;-81
2022/03/19 07:01:15;;;;;;;10.47;3.07;;;3.40;99.90;;;;;;5056900;28;20226;-81
2022/03/19 07:03:43;;;;;;;12.77;2.67;;;3.40;99.90;;;;;;5052620;28;20227;-81
2022/03/19 07:06:10;;;;;;;9.20;2.80;;;3.50;99.90;;;;;;5051516;28;20230;-81
2022/03/19 07:08:38;;;;;;;11.67;2.90;;;3.50;99.90;;;;;;5052602;28;20226;-81
2022/03/19 07:11:05;;;;;;;11.47;3.20;;;3.60;99.90;;;;;;5043692;28;20379;-78
2022/03/19 07:13:33;;;;;;;12.43;2.60;;;3.60;99.90;;;;;;5046507;28;20631;-78
2022/03/19 07:16:00;;;;;;;10.97;2.57;;;3.70;99.90;;;;;;5038178;28;20231;-77
2022/03/19 07:18:28;;;;;;;8.47;2.53;;;3.70;99.90;;;;;;5045052;28;20648;-78
2022/03/19 07:20:54;;;;;;;6.87;2.73;;;3.90;99.90;;;;;;5044015;28;20685;-78
2022/03/19 07:23:21;;;;;;;9.13;2.83;;;3.90;99.90;;;;;;5044864;28;20235;-78
2022/03/19 07:25:49;;;;;;;12.47;3.17;;;4.00;99.90;;;;;;5045747;28;20230;-76
2022/03/19 07:28:18;;;;;;;12.13;2.60;;;4.10;99.90;;;;;;5048066;28;20673;-77
2022/03/19 07:30:47;;;;;;;11.80;3.07;;;4.10;99.90;;;;;;5046876;28;20289;-77
2022/03/19 07:33:14;;;;;;;10.43;2.70;;;4.20;99.90;;;;;;5051741;28;20234;-77
2022/03/19 07:35:41;;;;;;;9.90;2.80;;;4.30;99.90;;;;;;5044148;28;20230;-77
2022/03/19 07:38:10;;;;;;;10.00;2.53;;;4.40;99.90;;;;;;5048181;28;20695;-78
2022/03/19 07:43:24;;;;;;;5.10;2.30;;;4.60;99.90;;;;;;5048189;28;20226;-78
2022/03/19 07:45:52;;;;;;;9.60;3.00;;;4.80;99.80;;;;;;5047237;28;20251;-77
2022/03/19 07:48:20;;;;;;;10.77;2.60;;;4.90;99.60;;;;;;5049505;28;20226;-78
2022/03/19 07:50:47;;;;;;;12.27;3.17;;;5.00;99.80;;;;;;5049363;28;20342;-78
2022/03/19 07:53:14;;;;;;;8.60;2.60;;;5.30;99.90;;;;;;5048439;28;20247;-79
2022/03/19 07:55:40;;;;;;;7.93;2.67;;;5.60;99.80;;;;;;5048447;28;20231;-77
2022/03/19 07:58:08;;;;;;;11.27;3.03;;;5.90;99.30;;;;;;5048432;28;20224;-78
2022/03/19 08:00:35;;;;;;;10.17;2.87;;;6.30;98.70;;;;;;5046134;28;20266;-79
2022/03/19 08:03:03;;;;;;;8.33;3.17;;;6.50;98.30;;;;;;5056616;28;20240;-80
2022/03/19 08:05:29;;;;;;;6.60;2.50;;;6.70;98.50;;;;;;5053804;28;20227;-79
2022/03/19 08:07:56;;;;;;;9.03;3.10;;;6.90;98.00;;;;;;5055576;28;20277;-79
2022/03/19 08:10:24;;;;;;;8.20;2.63;;;7.00;97.90;;;;;;5055219;28;20241;-79
2022/03/19 08:12:57;;;;;;;8.03;2.30;;;7.10;97.30;;;;;;5052434;28;20228;-77
2022/03/19 08:15:24;;;;;;;12.47;2.83;;;7.20;97.60;;;;;;5052742;28;20232;-79
2022/03/19 08:17:51;;;;;;;9.80;2.73;;;7.40;97.80;;;;;;5054439;28;20229;-78
2022/03/19 08:20:19;;;;;;;9.07;2.70;;;7.50;97.60;;;;;;5050989;28;20929;-79
2022/03/19 08:22:46;;;;;;;10.00;2.57;;;7.70;97.50;;;;;;5054568;28;20230;-79
2022/03/19 08:25:12;;;;;;;7.80;2.33;;;7.80;97.50;;;;;;5045898;28;20235;-79
2022/03/19 08:27:39;;;;;;;9.20;3.10;;;8.10;97.60;;;;;;5053798;28;20254;-79
2022/03/19 08:30:07;;;;;;;9.07;2.43;;;8.40;97.90;;;;;;5053814;28;20259;-79
2022/03/19 08:32:34;;;;;;;7.50;2.40;;;8.60;97.00;;;;;;5067879;28;20797;-79
2022/03/19 08:35:01;;;;;;;9.17;2.73;;;9.00;96.90;;;;;;5060588;28;20255;-79
2022/03/19 08:37:30;;;;;;;6.77;2.30;;;9.30;96.40;;;;;;5053344;28;20724;-79
2022/03/19 08:42:41;;;;;;;7.50;2.63;;;9.80;95.90;;;;;;5060306;28;20231;-79
2022/03/19 08:45:09;;;;;;;7.27;2.30;;;10.10;95.80;;;;;;5054055;28;20220;-79
2022/03/19 08:47:35;;;;;;;6.83;2.27;;;10.40;95.50;;;;;;5053127;28;20254;-79
2022/03/19 08:50:03;;;;;;;7.83;3.00;;;10.70;94.40;;;;;;5055831;28;20253;-80
2022/03/19 08:52:32;;;;;;;7.73;2.40;;;10.90;94.20;;;;;;5054671;28;20227;-79
2022/03/19 08:55:00;;;;;;;5.43;2.40;;;11.10;94.20;;;;;;5052707;28;20228;-80
2022/03/19 08:57:27;;;;;;;6.37;2.57;;;11.30;94.50;;;;;;5052482;28;20275;-80
2022/03/19 08:59:54;;;;;;;8.00;2.30;;;11.70;94.70;;;;;;5056307;28;20317;-79
2022/03/19 09:02:21;;;;;;;7.73;2.23;;;12.00;94.00;;;;;;5052930;28;20225;-79
2022/03/19 09:04:47;;;;;;;9.47;2.27;;;12.40;93.60;;;;;;5051579;28;20240;-80
2022/03/19 09:07:14;;;;;;;8.00;2.20;;;12.70;92.30;;;;;;5058245;28;20317;-79
2022/03/19 09:09:42;;;;;;;5.60;2.27;;;12.80;92.20;;;;;;5054969;28;20801;-79
2022/03/19 09:12:10;;;;;;;6.50;2.27;;;13.00;91.70;;;;;;5050067;28;20224;-80
2022/03/19 09:14:37;;;;;;;7.60;2.63;;;13.20;91.30;;;;;;5051290;28;20332;-80
2022/03/19 09:17:04;;;;;;;7.87;2.50;;;13.40;91.70;;;;;;5053670;28;20250;-79
2022/03/19 09:19:31;;;;;;;8.90;2.53;;;13.60;91.30;;;;;;5053777;28;20608;-80
2022/03/19 09:21:57;;;;;;;6.03;2.03;;;13.80;90.40;;;;;;5054785;28;20789;-80
2022/03/19 09:24:24;;;;;;;8.30;2.57;;;13.90;90.50;;;;;;5054044;28;20257;-80
2022/03/19 09:26:52;;;;;;;5.63;2.20;;;14.10;89.80;;;;;;5052077;28;20259;-82
2022/03/19 09:29:19;;;;;;;7.10;2.13;;;14.20;87.70;;;;;;5048757;28;20326;-82
2022/03/19 09:31:46;;;;;;;7.20;2.20;;;14.30;87.30;;;;;;5050434;28;20287;-82
2022/03/19 09:34:13;;;;;;;6.40;2.20;;;14.40;87.20;;;;;;5058519;28;20244;-82
2022/03/19 09:36:41;;;;;;;6.23;2.80;;;14.40;84.30;;;;;;5053762;28;20276;-81
2022/03/19 09:39:08;;;;;;;6.27;2.23;;;14.30;83.00;;;;;;5052786;28;20225;-80
2022/03/19 09:41:35;;;;;;;6.03;2.50;;;14.30;84.40;;;;;;5049710;28;20228;-81
2022/03/19 09:44:03;;;;;;;6.90;2.60;;;14.40;84.60;;;;;;5048868;28;20225;-77
2022/03/19 09:46:30;;;;;;;7.30;2.30;;;14.50;83.90;;;;;;5052682;28;20312;-82
2022/03/19 09:48:57;;;;;;;7.63;2.30;;;14.70;84.90;;;;;;5052072;28;20252;-80
2022/03/19 09:51:27;;;;;;;4.70;1.97;;;15.00;84.50;;;;;;5055605;28;20261;-80
2022/03/19 09:53:56;;;;;;;4.30;2.20;;;15.20;83.10;;;;;;5051567;28;20261;-76
2022/03/19 09:56:22;;;;;;;4.33;1.90;;;15.40;82.50;;;;;;5047701;28;20347;-76
2022/03/19 09:58:51;;;;;;;6.23;2.00;;;15.60;81.20;;;;;;5046556;28;20230;-77
2022/03/19 10:01:19;;;;;;;5.57;2.27;;;15.70;80.80;;;;;;5043289;28;20278;-77
2022/03/19 10:03:48;;;;;;;7.33;2.20;;;15.80;81.20;;;;;;5046258;28;20296;-77
2022/03/19 10:09:02;;;;;;;4.83;2.13;;;15.90;77.60;;;;;;5048314;28;20230;-76
2022/03/19 10:11:31;;;;;;;4.97;1.50;;;15.80;77.20;;;;;;5047162;28;20715;-76
2022/03/19 10:13:59;;;;;;;4.30;1.50;;;15.70;76.10;;;;;;5045586;28;20315;-77
2022/03/19 10:16:29;;;;;;;4.63;1.57;;;15.70;76.60;;;;;;5046354;28;20227;-76
2022/03/19 10:18:58;;;;;;;4.37;1.60;;;15.50;75.90;;;;;;5047273;28;20708;-77
2022/03/19 10:21:26;;;;;;;5.53;1.70;;;15.40;74.10;;;;;;5043289;28;20265;-76
2022/03/19 10:23:53;;;;;;;5.73;1.70;;;15.20;74.50;;;;;;5045042;28;20233;-77
2022/03/19 10:26:31;;;;;;;4.27;1.50;;;15.00;75.70;;;;;;5045928;28;20834;-76
2022/03/19 10:28:59;;;;;;;3.83;1.40;;;14.90;75.80;;;;;;5041379;28;20226;-76
2022/03/19 10:31:32;;;;;;;2.73;1.20;;;14.90;74.00;;;;;;5044089;28;20241;-77
2022/03/19 10:33:58;;;;;;;4.40;1.70;;;15.00;75.00;;;;;;5044323;28;20767;-77
2022/03/19 10:36:31;;;;;;;5.10;1.40;;;15.10;75.80;;;;;;5045677;28;20235;-77
2022/03/19 10:38:58;;;;;;;7.80;1.70;;;15.20;75.80;;;;;;5042577;28;20979;-77
2022/03/19 10:41:25;;;;;;;3.53;1.30;;;15.40;76.10;;;;;;5048203;28;20231;-76
2022/03/19 10:43:52;;;;;;;4.40;1.37;;;15.50;76.10;;;;;;5050257;28;20236;-77
2022/03/19 10:46:19;;;;;;;4.90;1.87;;;15.70;75.60;;;;;;5050890;28;20215;-76
2022/03/19 10:48:52;;;;;;;3.03;1.27;;;15.70;73.90;;;;;;5043041;28;20638;-76
2022/03/19 10:51:21;;;;;;;1.93;1.23;;;15.80;72.30;;;;;;5044041;28;20789;-76
2022/03/19 10:53:49;;;;;;;5.97;1.47;;;15.70;71.80;;;;;;5042392;28;20238;-76
2022/03/19 10:56:16;;;;;;;3.93;1.60;;;15.70;71.50;;;;;;5043685;28;20233;-76
2022/03/19 10:58:44;;;;;;;4.87;1.87;;;15.50;72.80;;;;;;5045439;28;20224;-77
2022/03/19 11:01:12;;;;;;;4.43;1.50;;;15.40;71.50;;;;;;5048822;28;20694;-76
2022/03/19 11:03:42;;;;;;;5.03;1.73;;;15.20;71.70;;;;;;5043121;28;20847;-77
2022/03/19 11:06:11;;;;;;;4.90;1.60;;;15.10;73.00;;;;;;5050586;28;20264;-76
2022/03/19 11:08:42;;;;;;;6.43;2.23;;;15.00;72.00;;;;;;5043484;28;20246;-76
2022/03/19 11:11:11;;;;;;;4.17;1.70;;;15.00;73.30;;;;;;5044299;28;20292;-76
2022/03/19 11:13:43;;;;;;;5.17;1.73;;;15.00;73.50;;;;;;5043574;28;20318;-77
2022/03/19 11:16:11;;;;;;;2.57;1.20;;;15.00;72.90;;;;;;5047500;28;20930;-77
2022/03/19 11:18:38;;;;;;;4.30;1.37;;;15.00;73.40;;;;;;5048715;28;22066;-77
2022/03/19 11:21:05;;;;;;;3.77;1.60;;;14.90;70.60;;;;;;5049497;28;20233;-80
2022/03/19 11:23:40;;;;;;;4.67;1.70;;;14.80;69.70;;;;;;5055214;28;20238;-80
2022/03/19 11:26:12;;;;;;;4.77;1.63;;;14.70;71.20;;;;;;5055871;28;20231;-78
2022/03/19 11:28:39;;;;;;;3.63;1.33;;;14.70;71.30;;;;;;5053215;28;20237;-79
2022/03/19 11:31:08;;;;;;;3.67;1.30;;;14.70;72.30;;;;;;5053526;28;20227;-79
2022/03/19 11:33:36;;;;;;;3.93;1.97;;;14.80;71.50;;;;;;5053773;28;20241;-79
2022/03/19 11:36:06;;;;;;;3.93;1.20;;;14.80;71.80;;;;;;5082147;28;20250;-79
2022/03/19 11:38:40;;;;;;;5.10;1.60;;;14.90;71.90;;;;;;5055289;28;20223;-79
2022/03/19 11:41:19;;;;;;;3.97;1.70;;;15.00;70.70;;;;;;5055302;28;20219;-79
2022/03/19 11:43:46;;;;;;;4.47;1.43;;;15.00;72.30;;;;;;5051353;28;20239;-79
2022/03/19 11:46:13;;;;;;;3.80;1.50;;;15.10;70.10;;;;;;5053085;28;20242;-79
2022/03/19 11:48:48;;;;;;;4.07;1.60;;;15.10;71.10;;;;;;5054306;28;20235;-79
2022/03/19 11:51:31;;;;;;;5.03;1.60;;;15.10;69.40;;;;;;5051121;28;20234;-79
2022/03/19 11:54:03;;;;;;;3.13;1.43;;;15.10;70.00;;;;;;5055677;28;20253;-79
2022/03/19 11:57:06;;;;;;;3.80;1.50;;;15.10;69.60;;;;;;5052229;28;20919;-79
2022/03/19 11:59:44;;;;;;;3.43;1.30;;;15.00;68.40;;;;;;5050102;28;20238;-79
2022/03/19 12:02:12;;;;;;;3.07;1.40;;;14.90;69.60;;;;;;5047684;28;20227;-79
2022/03/19 12:04:44;;;;;;;3.13;1.50;;;14.80;69.70;;;;;;5048322;28;20246;-79
2022/03/19 12:07:12;;;;;;;4.10;1.80;;;14.70;69.50;;;;;;5046787;28;20294;-79
2022/03/19 12:10:01;;;;;;;4.03;1.33;;;14.60;69.00;;;;;;5054967;28;20228;-79
2022/03/19 12:12:28;;;;;;;3.30;1.47;;;14.50;68.00;;;;;;5048825;28;20697;-79
2022/03/19 12:14:56;;;;;;;2.97;1.27;;;14.30;68.80;;;;;;5047295;28;20260;-79
2022/03/19 12:17:30;;;;;;;3.80;1.40;;;14.10;68.30;;;;;;5054233;28;20229;-79
2022/03/19 12:20:00;;;;;;;3.40;1.50;;;13.90;69.70;;;;;;5054030;28;20271;-79
2022/03/19 12:22:32;;;;;;;4.30;1.70;;;13.60;69.20;;;;;;5051559;28;20405;-79
2022/03/19 12:25:12;;;;;;;3.33;1.50;;;13.50;71.20;;;;;;5071079;28;20228;-77
2022/03/19 12:27:39;;;;;;;3.67;1.50;;;13.30;70.70;;;;;;5048155;28;20802;-78
2022/03/19 12:30:09;;;;;;;4.53;1.60;;;13.20;72.20;;;;;;5047831;28;20302;-79
2022/03/19 12:32:48;;;;;;;4.67;2.10;;;13.20;73.00;;;;;;5051296;28;20316;-80
2022/03/19 12:35:14;;;;;;;4.63;1.57;;;13.30;73.50;;;;;;5048420;28;20232;-78
2022/03/19 12:37:48;;;;;;;4.23;1.90;;;13.40;73.20;;;;;;5049321;28;20294;-78
2022/03/19 12:40:21;;;;;;;4.27;1.57;;;13.40;73.50;;;;;;5050776;28;20230;-79
2022/03/19 12:42:54;;;;;;;3.77;1.97;;;13.40;72.60;;;;;;5048199;28;20225;-79
2022/03/19 12:45:36;;;;;;;4.47;1.70;;;13.40;71.00;;;;;;5045067;28;20228;-78
2022/03/19 12:48:08;;;;;;;4.63;1.97;;;13.30;71.60;;;;;;5045572;28;20273;-78
2022/03/19 12:50:35;;;;;;;4.17;1.60;;;13.20;72.00;;;;;;5048830;28;20307;-77
2022/03/19 12:53:02;;;;;;;3.33;1.80;;;13.00;72.70;;;;;;5043113;28;20256;-77
2022/03/19 12:55:30;;;;;;;3.33;1.70;;;12.90;72.80;;;;;;5047904;28;20375;-77
2022/03/19 12:57:58;;;;;;;7.13;1.97;;;12.80;72.70;;;;;;5048250;28;20315;-78
2022/03/19 13:00:25;;;;;;;3.03;1.40;;;12.80;73.10;;;;;;5046085;28;20237;-78
2022/03/19 13:02:55;;;;;;;4.23;2.10;;;12.70;73.50;;;;;;5047046;28;20822;-78
2022/03/19 13:05:22;;;;;;;5.33;1.77;;;12.70;73.40;;;;;;5047996;28;20265;-77
2022/03/19 13:08:03;;;;;;;3.27;1.80;;;12.70;73.70;;;;;;5046923;28;20599;-78
2022/03/19 13:10:41;;;;;;;3.47;2.07;;;12.80;74.00;;;;;;5048409;28;20252;-78